Lake, MI (48632)

5:42 PM EST on February 09, 2016 (GMT -0500)
Bertha Lake | | Change Station
CLOSE
Current Station
Personal Weather Station
Location: Harrison, MI
Elevation: 1158 ft
Nearby Weather Stations

Elev 1158 ft 43.94 °N, 84.89 °W | Updated 4 minutes ago

Overcast
Overcast
23.5 °F
Feels Like 18 °F
N
4.2
Wind Variable Wind from NNW

Today
High -- | Low -- °F
--% Chance of Precip.
Yesterday
High -- | Low -- °F
Precip. -- in
Pressure 29.66 in
Visibility 10.0 miles
Clouds Overcast 2400 ft
Windchill 18 °F
Dew Point 20 °F
Humidity 85%
Rainfall 0.00 in
Snow Depth Not available.
7:47 AM 6:01 PM
New Moon, 2% visible
METAR KMOP 092235Z AUTO 31008G15KT 270V340 10SM OVC024 M03/M08 A2966 RMK AO2 T10271077
Pressure 29.66 in
Visibility 10.0 miles
Clouds Overcast 2400 ft
Windchill 18 °F
Dew Point 20 °F
Humidity 85%
Rainfall 0.00 in
Snow Depth Not available.
7:47 AM 6:01 PM
New Moon, 2% visible
METAR KMOP 092235Z AUTO 31008G15KT 270V340 10SM OVC024 M03/M08 A2966 RMK AO2 T10271077

10-Day Weather Forecast

Almanac

Astronomy

Feb. 09, 2016 Rise Set
Actual Time
Civil Twilight
Nautical Twilight
Astronomical Twilight
Moon
Length of Visible Light
Length of Day
Tomorrow will be .
, % of the Moon is Illuminated

Today's Extremes

State Highs State Lows

Community

WunderPhotos

Upload Photos

1,891,725 photos uploaded!

WunderBlog® & News

Nearby

Air Quality

  Air Quality AQ Index Pollutant
Not available.

Snow Depth

Station Depth Elevation

Earthquake Activity

City Distance Mag. Time & Date
Minimum magnitude displayed is 2.5.

Coastal Water Temperatures

Place Temperature

Stations

Nearby Weather Stations

Station Location Temp. Windchill Dew Point Humidity Wind Precip. Elev Updated Type
                   

Watches & Warnings

There are currently no watches in effect.